sensor_id;sensor_type;location;lat;lon;timestamp;P1;durP1;ratioP1;P2;durP2;ratioP2
10013;SDS011;45684;48.358;10.746;2022-09-20T00:01:08;1.60;;;1.20;;
10013;SDS011;45684;48.358;10.746;2022-09-20T00:03:37;1.93;;;1.37;;
10013;SDS011;45684;48.358;10.746;2022-09-20T00:06:07;1.50;;;1.40;;
10013;SDS011;45684;48.358;10.746;2022-09-20T00:08:36;2.20;;;1.50;;
10013;SDS011;45684;48.358;10.746;2022-09-20T00:11:06;1.73;;;1.50;;
10013;SDS011;45684;48.358;10.746;2022-09-20T00:13:36;1.60;;;1.50;;
10013;SDS011;45684;48.358;10.746;2022-09-20T00:16:05;2.60;;;1.33;;
10013;SDS011;45684;48.358;10.746;2022-09-20T00:18:34;1.50;;;1.40;;
10013;SDS011;45684;48.358;10.746;2022-09-20T00:21:02;1.97;;;1.50;;
10013;SDS011;45684;48.358;10.746;2022-09-20T00:23:30;1.60;;;1.50;;
10013;SDS011;45684;48.358;10.746;2022-09-20T00:25:59;1.37;;;1.27;;
10013;SDS011;45684;48.358;10.746;2022-09-20T00:28:30;1.60;;;1.50;;
10013;SDS011;45684;48.358;10.746;2022-09-20T00:30:59;1.30;;;1.30;;
10013;SDS011;45684;48.358;10.746;2022-09-20T00:33:26;1.70;;;1.60;;
10013;SDS011;45684;48.358;10.746;2022-09-20T00:36:14;1.63;;;1.53;;
10013;SDS011;45684;48.358;10.746;2022-09-20T00:38:41;3.10;;;1.40;;
10013;SDS011;45684;48.358;10.746;2022-09-20T00:41:09;1.73;;;1.53;;
10013;SDS011;45684;48.358;10.746;2022-09-20T00:43:39;1.67;;;1.30;;
10013;SDS011;45684;48.358;10.746;2022-09-20T00:46:14;2.60;;;1.60;;
10013;SDS011;45684;48.358;10.746;2022-09-20T00:48:49;1.77;;;1.67;;
10013;SDS011;45684;48.358;10.746;2022-09-20T00:51:19;1.90;;;1.70;;
10013;SDS011;45684;48.358;10.746;2022-09-20T00:53:51;2.30;;;1.50;;
10013;SDS011;45684;48.358;10.746;2022-09-20T00:56:23;1.63;;;1.53;;
10013;SDS011;45684;48.358;10.746;2022-09-20T00:58:56;1.57;;;1.47;;
10013;SDS011;45684;48.358;10.746;2022-09-20T01:01:30;1.47;;;1.37;;
10013;SDS011;45684;48.358;10.746;2022-09-20T01:03:59;2.10;;;1.90;;
10013;SDS011;45684;48.358;10.746;2022-09-20T01:06:27;1.90;;;1.80;;
10013;SDS011;45684;48.358;10.746;2022-09-20T01:08:57;2.30;;;1.90;;
10013;SDS011;45684;48.358;10.746;2022-09-20T01:11:28;1.80;;;1.70;;
10013;SDS011;45684;48.358;10.746;2022-09-20T01:13:58;2.07;;;1.87;;
10013;SDS011;45684;48.358;10.746;2022-09-20T01:16:26;1.67;;;1.57;;
10013;SDS011;45684;48.358;10.746;2022-09-20T01:18:57;2.20;;;1.90;;
10013;SDS011;45684;48.358;10.746;2022-09-20T01:21:28;2.10;;;1.90;;
10013;SDS011;45684;48.358;10.746;2022-09-20T01:23:58;2.20;;;2.00;;
10013;SDS011;45684;48.358;10.746;2022-09-20T01:26:50;2.60;;;1.90;;
10013;SDS011;45684;48.358;10.746;2022-09-20T01:29:38;2.00;;;1.70;;
10013;SDS011;45684;48.358;10.746;2022-09-20T01:32:20;3.47;;;1.90;;
10013;SDS011;45684;48.358;10.746;2022-09-20T01:34:53;2.13;;;2.03;;
10013;SDS011;45684;48.358;10.746;2022-09-20T01:37:24;2.67;;;2.00;;
10013;SDS011;45684;48.358;10.746;2022-09-20T01:39:56;2.40;;;2.10;;
10013;SDS011;45684;48.358;10.746;2022-09-20T01:42:35;2.60;;;2.00;;
10013;SDS011;45684;48.358;10.746;2022-09-20T01:45:09;2.03;;;1.90;;
10013;SDS011;45684;48.358;10.746;2022-09-20T01:47:45;2.37;;;2.17;;
10013;SDS011;45684;48.358;10.746;2022-09-20T01:50:24;2.37;;;1.83;;
10013;SDS011;45684;48.358;10.746;2022-09-20T01:53:04;3.00;;;2.60;;
10013;SDS011;45684;48.358;10.746;2022-09-20T01:55:56;2.93;;;2.40;;
10013;SDS011;45684;48.358;10.746;2022-09-20T01:59:28;2.47;;;2.27;;
10013;SDS011;45684;48.358;10.746;2022-09-20T02:05:54;2.27;;;2.07;;
10013;SDS011;45684;48.358;10.746;2022-09-20T02:08:40;3.10;;;2.50;;
10013;SDS011;45684;48.358;10.746;2022-09-20T02:11:27;2.67;;;2.30;;
10013;SDS011;45684;48.358;10.746;2022-09-20T02:14:06;2.50;;;2.30;;
10013;SDS011;45684;48.358;10.746;2022-09-20T02:16:50;3.70;;;2.20;;
10013;SDS011;45684;48.358;10.746;2022-09-20T02:19:33;2.40;;;2.20;;
10013;SDS011;45684;48.358;10.746;2022-09-20T02:22:25;2.17;;;2.07;;
10013;SDS011;45684;48.358;10.746;2022-09-20T02:25:05;2.30;;;2.17;;
10013;SDS011;45684;48.358;10.746;2022-09-20T02:27:44;2.53;;;2.33;;
10013;SDS011;45684;48.358;10.746;2022-09-20T02:30:22;2.77;;;2.57;;
10013;SDS011;45684;48.358;10.746;2022-09-20T02:33:05;2.27;;;2.07;;
10013;SDS011;45684;48.358;10.746;2022-09-20T02:35:43;3.13;;;2.37;;
10013;SDS011;45684;48.358;10.746;2022-09-20T02:38:28;2.90;;;2.60;;
10013;SDS011;45684;48.358;10.746;2022-09-20T02:41:23;2.90;;;2.70;;
10013;SDS011;45684;48.358;10.746;2022-09-20T02:44:08;3.33;;;3.00;;
10013;SDS011;45684;48.358;10.746;2022-09-20T02:46:46;3.70;;;2.60;;
10013;SDS011;45684;48.358;10.746;2022-09-20T02:49:21;3.10;;;2.80;;
10013;SDS011;45684;48.358;10.746;2022-09-20T02:51:57;3.00;;;2.70;;
10013;SDS011;45684;48.358;10.746;2022-09-20T02:54:33;3.17;;;2.70;;
10013;SDS011;45684;48.358;10.746;2022-09-20T02:57:11;3.00;;;2.80;;
10013;SDS011;45684;48.358;10.746;2022-09-20T02:59:45;3.03;;;2.83;;
10013;SDS011;45684;48.358;10.746;2022-09-20T03:02:21;2.80;;;2.60;;
10013;SDS011;45684;48.358;10.746;2022-09-20T03:05:00;2.53;;;2.43;;
10013;SDS011;45684;48.358;10.746;2022-09-20T03:07:40;3.53;;;2.70;;
10013;SDS011;45684;48.358;10.746;2022-09-20T03:10:20;2.90;;;2.70;;
10013;SDS011;45684;48.358;10.746;2022-09-20T03:12:57;3.30;;;2.80;;
10013;SDS011;45684;48.358;10.746;2022-09-20T03:15:38;3.70;;;2.43;;
10013;SDS011;45684;48.358;10.746;2022-09-20T03:18:18;2.97;;;2.70;;
10013;SDS011;45684;48.358;10.746;2022-09-20T03:20:59;3.27;;;2.60;;
10013;SDS011;45684;48.358;10.746;2022-09-20T03:23:39;2.87;;;2.53;;
10013;SDS011;45684;48.358;10.746;2022-09-20T03:26:20;3.27;;;2.47;;
10013;SDS011;45684;48.358;10.746;2022-09-20T03:29:01;2.93;;;2.60;;
10013;SDS011;45684;48.358;10.746;2022-09-20T03:31:35;3.97;;;2.67;;
10013;SDS011;45684;48.358;10.746;2022-09-20T03:34:15;3.23;;;2.60;;
10013;SDS011;45684;48.358;10.746;2022-09-20T03:37:01;2.97;;;2.40;;
10013;SDS011;45684;48.358;10.746;2022-09-20T03:42:39;4.47;;;2.87;;
10013;SDS011;45684;48.358;10.746;2022-09-20T03:48:24;3.03;;;2.63;;
10013;SDS011;45684;48.358;10.746;2022-09-20T03:51:07;2.43;;;2.33;;
10013;SDS011;45684;48.358;10.746;2022-09-20T03:53:48;2.50;;;2.30;;
10013;SDS011;45684;48.358;10.746;2022-09-20T03:56:45;4.20;;;2.80;;
10013;SDS011;45684;48.358;10.746;2022-09-20T03:59:33;3.80;;;2.43;;
10013;SDS011;45684;48.358;10.746;2022-09-20T04:02:18;4.13;;;2.50;;
10013;SDS011;45684;48.358;10.746;2022-09-20T04:05:08;2.73;;;2.30;;
10013;SDS011;45684;48.358;10.746;2022-09-20T04:07:42;2.57;;;2.20;;
10013;SDS011;45684;48.358;10.746;2022-09-20T04:10:23;4.17;;;2.53;;
10013;SDS011;45684;48.358;10.746;2022-09-20T04:13:03;3.93;;;2.83;;
10013;SDS011;45684;48.358;10.746;2022-09-20T04:15:50;4.10;;;2.43;;
10013;SDS011;45684;48.358;10.746;2022-09-20T04:18:27;6.40;;;5.80;;
10013;SDS011;45684;48.358;10.746;2022-09-20T04:21:01;5.93;;;4.30;;
10013;SDS011;45684;48.358;10.746;2022-09-20T04:23:37;4.30;;;2.57;;
10013;SDS011;45684;48.358;10.746;2022-09-20T04:26:10;3.67;;;2.43;;
10013;SDS011;45684;48.358;10.746;2022-09-20T04:28:42;2.80;;;2.37;;
10013;SDS011;45684;48.358;10.746;2022-09-20T04:31:19;3.07;;;2.43;;
10013;SDS011;45684;48.358;10.746;2022-09-20T04:33:56;4.20;;;2.50;;
10013;SDS011;45684;48.358;10.746;2022-09-20T04:36:33;3.30;;;2.63;;
10013;SDS011;45684;48.358;10.746;2022-09-20T04:39:06;5.07;;;2.93;;
10013;SDS011;45684;48.358;10.746;2022-09-20T04:42:07;2.53;;;2.30;;
10013;SDS011;45684;48.358;10.746;2022-09-20T04:57:24;3.73;;;2.63;;
10013;SDS011;45684;48.358;10.746;2022-09-20T05:00:06;3.87;;;2.57;;
10013;SDS011;45684;48.358;10.746;2022-09-20T05:02:42;3.07;;;2.30;;
10013;SDS011;45684;48.358;10.746;2022-09-20T05:05:43;3.33;;;2.40;;
10013;SDS011;45684;48.358;10.746;2022-09-20T05:11:28;3.57;;;2.93;;
10013;SDS011;45684;48.358;10.746;2022-09-20T05:17:31;2.97;;;2.70;;
10013;SDS011;45684;48.358;10.746;2022-09-20T05:20:08;3.33;;;2.63;;
10013;SDS011;45684;48.358;10.746;2022-09-20T05:23:01;3.00;;;2.70;;
10013;SDS011;45684;48.358;10.746;2022-09-20T05:28:49;3.40;;;2.50;;
10013;SDS011;45684;48.358;10.746;2022-09-20T05:31:27;2.97;;;2.47;;
10013;SDS011;45684;48.358;10.746;2022-09-20T05:34:06;3.20;;;2.83;;
10013;SDS011;45684;48.358;10.746;2022-09-20T05:36:47;3.33;;;2.47;;
10013;SDS011;45684;48.358;10.746;2022-09-20T05:39:26;2.73;;;2.50;;
10013;SDS011;45684;48.358;10.746;2022-09-20T05:42:03;2.20;;;2.00;;
10013;SDS011;45684;48.358;10.746;2022-09-20T05:44:49;2.33;;;2.13;;
10013;SDS011;45684;48.358;10.746;2022-09-20T05:47:26;3.33;;;2.30;;
10013;SDS011;45684;48.358;10.746;2022-09-20T05:50:13;4.37;;;2.27;;
10013;SDS011;45684;48.358;10.746;2022-09-20T05:52:51;4.37;;;2.40;;
10013;SDS011;45684;48.358;10.746;2022-09-20T05:58:24;3.27;;;2.43;;
10013;SDS011;45684;48.358;10.746;2022-09-20T06:01:00;5.00;;;3.10;;
10013;SDS011;45684;48.358;10.746;2022-09-20T06:03:35;2.70;;;2.50;;
10013;SDS011;45684;48.358;10.746;2022-09-20T06:06:09;3.83;;;2.30;;
10013;SDS011;45684;48.358;10.746;2022-09-20T06:08:45;4.73;;;2.97;;
10013;SDS011;45684;48.358;10.746;2022-09-20T06:11:44;4.37;;;2.90;;
10013;SDS011;45684;48.358;10.746;2022-09-20T06:14:24;3.20;;;2.40;;
10013;SDS011;45684;48.358;10.746;2022-09-20T06:17:03;4.33;;;2.70;;
10013;SDS011;45684;48.358;10.746;2022-09-20T06:19:40;5.83;;;2.90;;
10013;SDS011;45684;48.358;10.746;2022-09-20T06:22:13;3.77;;;2.63;;
10013;SDS011;45684;48.358;10.746;2022-09-20T06:24:46;6.13;;;3.50;;
10013;SDS011;45684;48.358;10.746;2022-09-20T06:27:19;5.03;;;4.07;;
10013;SDS011;45684;48.358;10.746;2022-09-20T06:29:54;8.60;;;4.40;;
10013;SDS011;45684;48.358;10.746;2022-09-20T06:32:26;3.10;;;2.80;;
10013;SDS011;45684;48.358;10.746;2022-09-20T06:34:54;5.30;;;2.90;;
10013;SDS011;45684;48.358;10.746;2022-09-20T06:37:32;5.60;;;2.80;;
10013;SDS011;45684;48.358;10.746;2022-09-20T06:40:30;3.83;;;2.73;;
10013;SDS011;45684;48.358;10.746;2022-09-20T06:43:22;4.20;;;2.87;;
10013;SDS011;45684;48.358;10.746;2022-09-20T06:45:51;3.50;;;2.50;;
10013;SDS011;45684;48.358;10.746;2022-09-20T06:48:19;2.97;;;2.40;;
10013;SDS011;45684;48.358;10.746;2022-09-20T06:50:47;2.67;;;2.43;;
10013;SDS011;45684;48.358;10.746;2022-09-20T06:53:15;4.20;;;3.00;;
10013;SDS011;45684;48.358;10.746;2022-09-20T06:55:44;4.53;;;2.90;;
10013;SDS011;45684;48.358;10.746;2022-09-20T06:58:13;4.40;;;2.80;;
10013;SDS011;45684;48.358;10.746;2022-09-20T07:00:41;5.67;;;2.80;;
10013;SDS011;45684;48.358;10.746;2022-09-20T07:03:10;3.87;;;2.60;;
10013;SDS011;45684;48.358;10.746;2022-09-20T07:05:39;4.37;;;2.67;;
10013;SDS011;45684;48.358;10.746;2022-09-20T07:08:06;3.60;;;2.77;;
10013;SDS011;45684;48.358;10.746;2022-09-20T07:10:34;5.73;;;3.03;;
10013;SDS011;45684;48.358;10.746;2022-09-20T07:13:02;6.20;;;3.03;;
10013;SDS011;45684;48.358;10.746;2022-09-20T07:15:31;3.90;;;2.90;;
10013;SDS011;45684;48.358;10.746;2022-09-20T07:18:00;3.73;;;2.90;;
10013;SDS011;45684;48.358;10.746;2022-09-20T07:20:29;3.27;;;2.70;;
10013;SDS011;45684;48.358;10.746;2022-09-20T07:22:56;5.30;;;2.70;;
10013;SDS011;45684;48.358;10.746;2022-09-20T07:25:24;3.63;;;2.40;;
10013;SDS011;45684;48.358;10.746;2022-09-20T07:27:52;3.87;;;2.50;;
10013;SDS011;45684;48.358;10.746;2022-09-20T07:30:20;4.47;;;2.97;;
10013;SDS011;45684;48.358;10.746;2022-09-20T07:32:48;3.43;;;2.93;;
10013;SDS011;45684;48.358;10.746;2022-09-20T07:35:16;4.53;;;2.80;;
10013;SDS011;45684;48.358;10.746;2022-09-20T07:37:45;3.87;;;2.73;;
10013;SDS011;45684;48.358;10.746;2022-09-20T07:40:13;4.33;;;2.83;;
10013;SDS011;45684;48.358;10.746;2022-09-20T07:42:41;5.00;;;2.90;;
10013;SDS011;45684;48.358;10.746;2022-09-20T07:45:11;4.53;;;2.63;;
10013;SDS011;45684;48.358;10.746;2022-09-20T07:47:39;5.23;;;2.93;;
10013;SDS011;45684;48.358;10.746;2022-09-20T07:50:10;2.70;;;2.50;;
10013;SDS011;45684;48.358;10.746;2022-09-20T07:52:37;4.20;;;2.70;;
10013;SDS011;45684;48.358;10.746;2022-09-20T07:55:07;7.33;;;2.97;;
10013;SDS011;45684;48.358;10.746;2022-09-20T07:57:35;3.57;;;3.10;;
10013;SDS011;45684;48.358;10.746;2022-09-20T08:00:04;5.77;;;3.20;;
10013;SDS011;45684;48.358;10.746;2022-09-20T08:02:40;3.90;;;3.00;;
10013;SDS011;45684;48.358;10.746;2022-09-20T08:05:10;4.17;;;3.40;;
10013;SDS011;45684;48.358;10.746;2022-09-20T08:07:38;6.80;;;3.90;;
10013;SDS011;45684;48.358;10.746;2022-09-20T08:10:08;5.67;;;3.90;;
10013;SDS011;45684;48.358;10.746;2022-09-20T08:12:36;6.03;;;3.93;;
10013;SDS011;45684;48.358;10.746;2022-09-20T08:15:24;8.20;;;4.40;;
10013;SDS011;45684;48.358;10.746;2022-09-20T08:17:52;5.97;;;4.00;;
10013;SDS011;45684;48.358;10.746;2022-09-20T08:20:19;6.03;;;4.33;;
10013;SDS011;45684;48.358;10.746;2022-09-20T08:22:47;8.83;;;4.90;;
10013;SDS011;45684;48.358;10.746;2022-09-20T08:25:36;5.80;;;4.23;;
10013;SDS011;45684;48.358;10.746;2022-09-20T08:28:04;5.30;;;4.30;;
10013;SDS011;45684;48.358;10.746;2022-09-20T08:30:32;6.30;;;4.23;;
10013;SDS011;45684;48.358;10.746;2022-09-20T08:33:02;5.00;;;4.50;;
10013;SDS011;45684;48.358;10.746;2022-09-20T08:35:30;6.57;;;4.63;;
10013;SDS011;45684;48.358;10.746;2022-09-20T08:37:57;6.20;;;4.73;;
10013;SDS011;45684;48.358;10.746;2022-09-20T08:40:47;5.07;;;3.93;;
10013;SDS011;45684;48.358;10.746;2022-09-20T08:43:15;5.57;;;4.17;;
10013;SDS011;45684;48.358;10.746;2022-09-20T08:45:47;4.40;;;4.00;;
10013;SDS011;45684;48.358;10.746;2022-09-20T08:48:16;8.20;;;4.20;;
10013;SDS011;45684;48.358;10.746;2022-09-20T08:50:46;5.17;;;4.00;;
10013;SDS011;45684;48.358;10.746;2022-09-20T08:53:13;7.90;;;4.13;;
10013;SDS011;45684;48.358;10.746;2022-09-20T08:55:48;5.67;;;4.10;;
10013;SDS011;45684;48.358;10.746;2022-09-20T08:58:16;6.63;;;4.17;;
10013;SDS011;45684;48.358;10.746;2022-09-20T09:00:45;5.80;;;4.10;;
10013;SDS011;45684;48.358;10.746;2022-09-20T09:03:13;7.23;;;4.40;;
10013;SDS011;45684;48.358;10.746;2022-09-20T09:05:44;5.40;;;4.00;;
10013;SDS011;45684;48.358;10.746;2022-09-20T09:08:14;6.43;;;3.93;;
10013;SDS011;45684;48.358;10.746;2022-09-20T09:10:44;5.30;;;3.70;;
10013;SDS011;45684;48.358;10.746;2022-09-20T09:13:20;4.13;;;3.40;;
10013;SDS011;45684;48.358;10.746;2022-09-20T09:15:53;6.30;;;3.90;;
10013;SDS011;45684;48.358;10.746;2022-09-20T09:18:30;6.53;;;3.80;;
10013;SDS011;45684;48.358;10.746;2022-09-20T09:21:01;6.07;;;4.03;;
10013;SDS011;45684;48.358;10.746;2022-09-20T09:23:36;7.27;;;3.80;;
10013;SDS011;45684;48.358;10.746;2022-09-20T09:26:13;7.93;;;2.93;;
10013;SDS011;45684;48.358;10.746;2022-09-20T09:28:44;4.80;;;3.53;;
10013;SDS011;45684;48.358;10.746;2022-09-20T09:31:12;6.27;;;4.10;;
10013;SDS011;45684;48.358;10.746;2022-09-20T09:33:47;5.73;;;3.50;;
10013;SDS011;45684;48.358;10.746;2022-09-20T09:36:15;4.67;;;3.67;;
10013;SDS011;45684;48.358;10.746;2022-09-20T09:38:48;5.77;;;3.70;;
10013;SDS011;45684;48.358;10.746;2022-09-20T09:41:20;6.17;;;3.30;;
10013;SDS011;45684;48.358;10.746;2022-09-20T09:43:58;5.10;;;3.93;;
10013;SDS011;45684;48.358;10.746;2022-09-20T09:46:29;4.90;;;4.23;;
10013;SDS011;45684;48.358;10.746;2022-09-20T09:49:06;5.37;;;3.23;;
10013;SDS011;45684;48.358;10.746;2022-09-20T09:51:38;5.13;;;3.67;;
10013;SDS011;45684;48.358;10.746;2022-09-20T09:54:11;7.37;;;3.60;;
10013;SDS011;45684;48.358;10.746;2022-09-20T09:56:48;6.03;;;3.73;;
10013;SDS011;45684;48.358;10.746;2022-09-20T09:59:34;5.97;;;3.50;;
10013;SDS011;45684;48.358;10.746;2022-09-20T10:02:17;6.70;;;3.70;;
10013;SDS011;45684;48.358;10.746;2022-09-20T10:04:56;4.20;;;3.57;;
10013;SDS011;45684;48.358;10.746;2022-09-20T10:07:29;4.73;;;2.93;;
10013;SDS011;45684;48.358;10.746;2022-09-20T10:10:05;4.27;;;2.80;;
10013;SDS011;45684;48.358;10.746;2022-09-20T10:12:43;6.80;;;2.83;;
10013;SDS011;45684;48.358;10.746;2022-09-20T10:15:22;5.80;;;2.27;;
10013;SDS011;45684;48.358;10.746;2022-09-20T10:18:03;4.40;;;2.00;;
10013;SDS011;45684;48.358;10.746;2022-09-20T10:20:47;5.47;;;2.70;;
10013;SDS011;45684;48.358;10.746;2022-09-20T10:23:33;6.70;;;2.40;;
10013;SDS011;45684;48.358;10.746;2022-09-20T10:29:39;3.03;;;2.30;;
10013;SDS011;45684;48.358;10.746;2022-09-20T10:32:26;5.20;;;2.00;;
10013;SDS011;45684;48.358;10.746;2022-09-20T10:35:11;3.37;;;2.20;;
10013;SDS011;45684;48.358;10.746;2022-09-20T10:37:50;4.60;;;2.33;;
10013;SDS011;45684;48.358;10.746;2022-09-20T10:40:40;4.53;;;2.17;;
10013;SDS011;45684;48.358;10.746;2022-09-20T10:43:41;2.83;;;2.10;;
10013;SDS011;45684;48.358;10.746;2022-09-20T10:46:20;5.03;;;2.10;;
10013;SDS011;45684;48.358;10.746;2022-09-20T10:49:03;4.73;;;2.50;;
10013;SDS011;45684;48.358;10.746;2022-09-20T10:51:41;4.20;;;1.80;;
10013;SDS011;45684;48.358;10.746;2022-09-20T10:54:24;3.67;;;1.80;;
10013;SDS011;45684;48.358;10.746;2022-09-20T10:57:03;3.87;;;1.60;;
10013;SDS011;45684;48.358;10.746;2022-09-20T10:59:46;3.87;;;2.10;;
10013;SDS011;45684;48.358;10.746;2022-09-20T11:02:27;2.67;;;1.90;;
10013;SDS011;45684;48.358;10.746;2022-09-20T11:05:12;3.13;;;1.70;;
10013;SDS011;45684;48.358;10.746;2022-09-20T11:07:51;2.43;;;1.80;;
10013;SDS011;45684;48.358;10.746;2022-09-20T11:10:27;3.20;;;1.63;;
10013;SDS011;45684;48.358;10.746;2022-09-20T11:13:02;4.17;;;1.60;;
10013;SDS011;45684;48.358;10.746;2022-09-20T11:15:35;4.27;;;1.80;;
10013;SDS011;45684;48.358;10.746;2022-09-20T11:18:09;4.53;;;1.90;;
10013;SDS011;45684;48.358;10.746;2022-09-20T11:20:48;5.33;;;2.00;;
10013;SDS011;45684;48.358;10.746;2022-09-20T11:23:23;3.20;;;1.53;;
10013;SDS011;45684;48.358;10.746;2022-09-20T11:25:58;5.13;;;1.80;;
10013;SDS011;45684;48.358;10.746;2022-09-20T11:28:32;4.40;;;1.60;;
10013;SDS011;45684;48.358;10.746;2022-09-20T11:31:06;3.87;;;1.80;;
10013;SDS011;45684;48.358;10.746;2022-09-20T11:33:39;4.10;;;1.70;;
10013;SDS011;45684;48.358;10.746;2022-09-20T11:36:14;3.50;;;1.40;;
10013;SDS011;45684;48.358;10.746;2022-09-20T11:38:47;3.73;;;1.50;;
10013;SDS011;45684;48.358;10.746;2022-09-20T11:41:19;3.50;;;1.40;;
10013;SDS011;45684;48.358;10.746;2022-09-20T11:43:52;6.17;;;1.80;;
10013;SDS011;45684;48.358;10.746;2022-09-20T11:46:24;3.00;;;1.40;;
10013;SDS011;45684;48.358;10.746;2022-09-20T11:48:57;2.37;;;1.60;;
10013;SDS011;45684;48.358;10.746;2022-09-20T11:51:36;1.70;;;1.50;;
10013;SDS011;45684;48.358;10.746;2022-09-20T11:57:22;3.93;;;1.50;;
10013;SDS011;45684;48.358;10.746;2022-09-20T11:59:51;2.73;;;1.60;;
10013;SDS011;45684;48.358;10.746;2022-09-20T12:02:22;2.97;;;1.63;;
10013;SDS011;45684;48.358;10.746;2022-09-20T12:04:58;5.67;;;2.00;;
10013;SDS011;45684;48.358;10.746;2022-09-20T12:07:28;2.30;;;1.50;;
10013;SDS011;45684;48.358;10.746;2022-09-20T12:10:02;4.80;;;1.90;;
10013;SDS011;45684;48.358;10.746;2022-09-20T12:12:35;2.80;;;1.87;;
10013;SDS011;45684;48.358;10.746;2022-09-20T12:15:18;3.67;;;2.10;;
10013;SDS011;45684;48.358;10.746;2022-09-20T12:21:03;4.33;;;1.97;;
10013;SDS011;45684;48.358;10.746;2022-09-20T12:23:44;1.50;;;1.30;;
10013;SDS011;45684;48.358;10.746;2022-09-20T12:29:09;4.20;;;1.47;;
10013;SDS011;45684;48.358;10.746;2022-09-20T12:38:33;2.93;;;1.27;;
10013;SDS011;45684;48.358;10.746;2022-09-20T12:41:10;2.77;;;1.53;;
10013;SDS011;45684;48.358;10.746;2022-09-20T12:43:51;1.60;;;1.13;;
10013;SDS011;45684;48.358;10.746;2022-09-20T12:46:28;2.13;;;1.10;;
10013;SDS011;45684;48.358;10.746;2022-09-20T12:49:11;3.40;;;1.60;;
10013;SDS011;45684;48.358;10.746;2022-09-20T12:52:01;1.97;;;1.30;;
10013;SDS011;45684;48.358;10.746;2022-09-20T12:54:50;1.73;;;1.13;;
10013;SDS011;45684;48.358;10.746;2022-09-20T12:57:26;2.77;;;1.20;;
10013;SDS011;45684;48.358;10.746;2022-09-20T12:59:58;2.47;;;1.20;;
10013;SDS011;45684;48.358;10.746;2022-09-20T13:05:32;2.77;;;1.30;;
10013;SDS011;45684;48.358;10.746;2022-09-20T13:10:52;2.17;;;1.20;;
10013;SDS011;45684;48.358;10.746;2022-09-20T13:13:28;1.43;;;1.10;;
10013;SDS011;45684;48.358;10.746;2022-09-20T13:15:59;2.20;;;1.20;;
10013;SDS011;45684;48.358;10.746;2022-09-20T13:18:33;2.80;;;1.33;;
10013;SDS011;45684;48.358;10.746;2022-09-20T13:21:04;2.67;;;1.23;;
10013;SDS011;45684;48.358;10.746;2022-09-20T13:23:38;3.07;;;1.40;;
10013;SDS011;45684;48.358;10.746;2022-09-20T13:26:15;2.07;;;1.30;;
10013;SDS011;45684;48.358;10.746;2022-09-20T13:28:49;2.60;;;1.10;;
10013;SDS011;45684;48.358;10.746;2022-09-20T13:31:24;1.97;;;1.23;;
10013;SDS011;45684;48.358;10.746;2022-09-20T13:33:54;2.80;;;1.43;;
10013;SDS011;45684;48.358;10.746;2022-09-20T13:36:39;2.43;;;1.07;;
10013;SDS011;45684;48.358;10.746;2022-09-20T13:39:08;3.27;;;1.20;;
10013;SDS011;45684;48.358;10.746;2022-09-20T13:41:35;4.27;;;1.43;;
10013;SDS011;45684;48.358;10.746;2022-09-20T13:44:03;2.47;;;1.30;;
10013;SDS011;45684;48.358;10.746;2022-09-20T13:46:32;3.03;;;1.10;;
10013;SDS011;45684;48.358;10.746;2022-09-20T13:49:11;2.10;;;1.60;;
10013;SDS011;45684;48.358;10.746;2022-09-20T13:51:44;3.20;;;1.50;;
10013;SDS011;45684;48.358;10.746;2022-09-20T13:57:00;3.80;;;1.00;;
10013;SDS011;45684;48.358;10.746;2022-09-20T13:59:31;1.13;;;0.97;;
10013;SDS011;45684;48.358;10.746;2022-09-20T14:02:01;3.07;;;1.30;;
10013;SDS011;45684;48.358;10.746;2022-09-20T14:04:29;2.10;;;1.23;;
10013;SDS011;45684;48.358;10.746;2022-09-20T14:06:59;2.67;;;1.10;;
10013;SDS011;45684;48.358;10.746;2022-09-20T14:09:34;2.30;;;1.10;;
10013;SDS011;45684;48.358;10.746;2022-09-20T14:12:04;1.90;;;1.00;;
10013;SDS011;45684;48.358;10.746;2022-09-20T14:14:33;2.60;;;1.00;;
10013;SDS011;45684;48.358;10.746;2022-09-20T14:17:03;1.53;;;0.90;;
10013;SDS011;45684;48.358;10.746;2022-09-20T14:19:36;2.83;;;1.30;;
10013;SDS011;45684;48.358;10.746;2022-09-20T14:22:10;2.27;;;1.00;;
10013;SDS011;45684;48.358;10.746;2022-09-20T14:24:49;1.47;;;1.10;;
10013;SDS011;45684;48.358;10.746;2022-09-20T14:27:24;2.53;;;1.07;;
10013;SDS011;45684;48.358;10.746;2022-09-20T14:29:52;2.10;;;1.10;;
10013;SDS011;45684;48.358;10.746;2022-09-20T14:32:27;1.20;;;1.10;;
10013;SDS011;45684;48.358;10.746;2022-09-20T14:35:04;1.47;;;1.00;;
10013;SDS011;45684;48.358;10.746;2022-09-20T14:37:40;3.53;;;1.30;;
10013;SDS011;45684;48.358;10.746;2022-09-20T14:40:20;2.80;;;1.00;;
10013;SDS011;45684;48.358;10.746;2022-09-20T14:42:51;2.73;;;0.90;;
10013;SDS011;45684;48.358;10.746;2022-09-20T14:45:23;4.90;;;1.70;;
10013;SDS011;45684;48.358;10.746;2022-09-20T14:47:54;5.13;;;1.50;;
10013;SDS011;45684;48.358;10.746;2022-09-20T14:50:26;2.97;;;1.70;;
10013;SDS011;45684;48.358;10.746;2022-09-20T14:55:59;2.00;;;1.30;;
10013;SDS011;45684;48.358;10.746;2022-09-20T15:01:31;3.23;;;1.30;;
10013;SDS011;45684;48.358;10.746;2022-09-20T15:04:04;2.27;;;1.30;;
10013;SDS011;45684;48.358;10.746;2022-09-20T15:06:35;1.83;;;1.10;;
10013;SDS011;45684;48.358;10.746;2022-09-20T15:09:05;2.23;;;1.47;;
10013;SDS011;45684;48.358;10.746;2022-09-20T15:11:33;2.00;;;1.30;;
10013;SDS011;45684;48.358;10.746;2022-09-20T15:14:01;2.93;;;1.10;;
10013;SDS011;45684;48.358;10.746;2022-09-20T15:16:28;3.20;;;1.30;;
10013;SDS011;45684;48.358;10.746;2022-09-20T15:18:56;3.43;;;1.17;;
10013;SDS011;45684;48.358;10.746;2022-09-20T15:21:24;4.63;;;1.10;;
10013;SDS011;45684;48.358;10.746;2022-09-20T15:23:52;2.93;;;1.33;;
10013;SDS011;45684;48.358;10.746;2022-09-20T15:26:21;3.23;;;1.10;;
10013;SDS011;45684;48.358;10.746;2022-09-20T15:28:49;1.60;;;1.10;;
10013;SDS011;45684;48.358;10.746;2022-09-20T15:31:17;3.23;;;1.20;;
10013;SDS011;45684;48.358;10.746;2022-09-20T15:33:45;5.07;;;2.70;;
10013;SDS011;45684;48.358;10.746;2022-09-20T15:36:13;2.17;;;1.50;;
10013;SDS011;45684;48.358;10.746;2022-09-20T15:38:40;1.83;;;1.23;;
10013;SDS011;45684;48.358;10.746;2022-09-20T15:41:08;3.20;;;1.20;;
10013;SDS011;45684;48.358;10.746;2022-09-20T15:43:38;3.07;;;1.30;;
10013;SDS011;45684;48.358;10.746;2022-09-20T15:46:15;3.27;;;1.17;;
10013;SDS011;45684;48.358;10.746;2022-09-20T15:48:45;2.57;;;0.97;;
10013;SDS011;45684;48.358;10.746;2022-09-20T15:51:13;2.43;;;1.30;;
10013;SDS011;45684;48.358;10.746;2022-09-20T15:53:42;2.63;;;1.27;;
10013;SDS011;45684;48.358;10.746;2022-09-20T15:56:14;3.30;;;1.20;;
10013;SDS011;45684;48.358;10.746;2022-09-20T15:58:45;2.10;;;1.37;;
10013;SDS011;45684;48.358;10.746;2022-09-20T16:01:14;2.50;;;1.40;;
10013;SDS011;45684;48.358;10.746;2022-09-20T16:03:43;5.43;;;1.50;;
10013;SDS011;45684;48.358;10.746;2022-09-20T16:06:12;2.07;;;1.30;;
10013;SDS011;45684;48.358;10.746;2022-09-20T16:08:40;3.00;;;1.17;;
10013;SDS011;45684;48.358;10.746;2022-09-20T16:11:13;2.40;;;1.00;;
10013;SDS011;45684;48.358;10.746;2022-09-20T16:13:52;1.80;;;1.20;;
10013;SDS011;45684;48.358;10.746;2022-09-20T16:16:20;2.70;;;1.43;;
10013;SDS011;45684;48.358;10.746;2022-09-20T16:18:48;2.07;;;1.50;;
10013;SDS011;45684;48.358;10.746;2022-09-20T16:21:34;3.73;;;1.40;;
10013;SDS011;45684;48.358;10.746;2022-09-20T16:24:04;3.80;;;1.63;;
10013;SDS011;45684;48.358;10.746;2022-09-20T16:26:33;2.67;;;1.30;;
10013;SDS011;45684;48.358;10.746;2022-09-20T16:29:03;2.20;;;1.37;;